sensor_id;sensor_type;location;lat;lon;timestamp;temperature;humidity
40053;DHT22;25758;48.200;16.338;2024-01-07T00:01:01;4.70;99.90
40053;DHT22;25758;48.200;16.338;2024-01-07T00:05:53;4.70;99.90
40053;DHT22;25758;48.200;16.338;2024-01-07T00:08:19;4.60;99.90
40053;DHT22;25758;48.200;16.338;2024-01-07T00:13:12;4.60;99.90
40053;DHT22;25758;48.200;16.338;2024-01-07T00:15:38;4.60;99.90
40053;DHT22;25758;48.200;16.338;2024-01-07T00:18:03;4.70;99.90
40053;DHT22;25758;48.200;16.338;2024-01-07T00:22:55;4.50;99.90
40053;DHT22;25758;48.200;16.338;2024-01-07T00:25:21;4.50;99.90
40053;DHT22;25758;48.200;16.338;2024-01-07T00:27:47;4.50;99.90
40053;DHT22;25758;48.200;16.338;2024-01-07T00:30:13;5.20;99.90
40053;DHT22;25758;48.200;16.338;2024-01-07T00:32:39;4.60;99.90
40053;DHT22;25758;48.200;16.338;2024-01-07T00:35:05;4.60;99.90
40053;DHT22;25758;48.200;16.338;2024-01-07T00:37:30;4.70;99.90
40053;DHT22;25758;48.200;16.338;2024-01-07T00:39:56;4.80;99.90
40053;DHT22;25758;48.200;16.338;2024-01-07T00:42:21;4.80;99.90
40053;DHT22;25758;48.200;16.338;2024-01-07T00:44:47;4.80;99.90
40053;DHT22;25758;48.200;16.338;2024-01-07T00:47:13;5.20;99.90
40053;DHT22;25758;48.200;16.338;2024-01-07T00:49:38;4.60;99.90
40053;DHT22;25758;48.200;16.338;2024-01-07T00:54:31;4.50;99.90
40053;DHT22;25758;48.200;16.338;2024-01-07T00:59:23;4.20;99.90
40053;DHT22;25758;48.200;16.338;2024-01-07T01:01:58;4.30;99.90
40053;DHT22;25758;48.200;16.338;2024-01-07T01:06:49;4.30;99.90
40053;DHT22;25758;48.200;16.338;2024-01-07T01:09:15;4.40;99.90
40053;DHT22;25758;48.200;16.338;2024-01-07T01:11:40;4.40;99.90
40053;DHT22;25758;48.200;16.338;2024-01-07T01:14:06;6.80;99.90
40053;DHT22;25758;48.200;16.338;2024-01-07T01:16:32;4.40;99.90
40053;DHT22;25758;48.200;16.338;2024-01-07T01:18:57;4.20;99.90
40053;DHT22;25758;48.200;16.338;2024-01-07T01:30:19;4.20;99.90
40053;DHT22;25758;48.200;16.338;2024-01-07T01:32:44;4.00;99.90
40053;DHT22;25758;48.200;16.338;2024-01-07T01:35:10;4.30;99.90
40053;DHT22;25758;48.200;16.338;2024-01-07T01:37:35;4.30;99.90
40053;DHT22;25758;48.200;16.338;2024-01-07T01:42:27;4.30;99.90
40053;DHT22;25758;48.200;16.338;2024-01-07T01:44:53;4.60;99.90
40053;DHT22;25758;48.200;16.338;2024-01-07T01:47:22;4.50;99.90
40053;DHT22;25758;48.200;16.338;2024-01-07T01:49:48;4.30;99.90
40053;DHT22;25758;48.200;16.338;2024-01-07T01:52:14;4.40;99.90
40053;DHT22;25758;48.200;16.338;2024-01-07T01:54:40;4.30;99.90
40053;DHT22;25758;48.200;16.338;2024-01-07T01:57:06;4.40;99.90
40053;DHT22;25758;48.200;16.338;2024-01-07T01:59:34;4.40;99.90
40053;DHT22;25758;48.200;16.338;2024-01-07T02:04:26;4.50;99.90
40053;DHT22;25758;48.200;16.338;2024-01-07T02:06:52;4.60;99.90
40053;DHT22;25758;48.200;16.338;2024-01-07T02:09:18;4.80;99.90
40053;DHT22;25758;48.200;16.338;2024-01-07T02:11:43;4.70;99.90
40053;DHT22;25758;48.200;16.338;2024-01-07T02:16:35;4.50;99.90
40053;DHT22;25758;48.200;16.338;2024-01-07T02:19:00;4.40;99.90
40053;DHT22;25758;48.200;16.338;2024-01-07T02:21:26;4.30;99.90
40053;DHT22;25758;48.200;16.338;2024-01-07T02:23:52;4.30;99.90
40053;DHT22;25758;48.200;16.338;2024-01-07T02:26:17;4.30;99.90
40053;DHT22;25758;48.200;16.338;2024-01-07T02:31:09;4.50;99.90
40053;DHT22;25758;48.200;16.338;2024-01-07T02:33:35;4.50;99.90
40053;DHT22;25758;48.200;16.338;2024-01-07T02:40:52;4.60;99.90
40053;DHT22;25758;48.200;16.338;2024-01-07T02:43:18;4.40;99.90
40053;DHT22;25758;48.200;16.338;2024-01-07T02:48:10;4.30;99.90
40053;DHT22;25758;48.200;16.338;2024-01-07T02:50:35;4.10;99.90
40053;DHT22;25758;48.200;16.338;2024-01-07T02:53:01;4.20;99.90
40053;DHT22;25758;48.200;16.338;2024-01-07T02:55:26;4.30;99.90
40053;DHT22;25758;48.200;16.338;2024-01-07T02:57:52;4.30;99.90
40053;DHT22;25758;48.200;16.338;2024-01-07T03:00:18;4.30;99.90
40053;DHT22;25758;48.200;16.338;2024-01-07T03:02:44;3.90;99.90
40053;DHT22;25758;48.200;16.338;2024-01-07T03:05:10;3.80;99.90
40053;DHT22;25758;48.200;16.338;2024-01-07T03:07:38;4.60;99.90
40053;DHT22;25758;48.200;16.338;2024-01-07T03:10:05;4.60;99.90
40053;DHT22;25758;48.200;16.338;2024-01-07T03:12:31;3.80;99.90
40053;DHT22;25758;48.200;16.338;2024-01-07T03:14:59;3.80;99.90
40053;DHT22;25758;48.200;16.338;2024-01-07T03:17:25;3.80;99.90
40053;DHT22;25758;48.200;16.338;2024-01-07T03:19:50;3.90;99.90
40053;DHT22;25758;48.200;16.338;2024-01-07T03:22:16;3.80;99.90
40053;DHT22;25758;48.200;16.338;2024-01-07T03:24:42;4.00;99.90
40053;DHT22;25758;48.200;16.338;2024-01-07T03:27:07;4.00;99.90
40053;DHT22;25758;48.200;16.338;2024-01-07T03:29:33;4.10;99.90
40053;DHT22;25758;48.200;16.338;2024-01-07T03:31:59;3.90;99.90
40053;DHT22;25758;48.200;16.338;2024-01-07T03:34:27;3.90;99.90
40053;DHT22;25758;48.200;16.338;2024-01-07T03:36:54;4.60;99.90
40053;DHT22;25758;48.200;16.338;2024-01-07T03:39:20;4.30;99.90
40053;DHT22;25758;48.200;16.338;2024-01-07T03:41:45;3.80;99.90
40053;DHT22;25758;48.200;16.338;2024-01-07T03:44:31;3.70;99.90
40053;DHT22;25758;48.200;16.338;2024-01-07T03:49:41;3.60;99.90
40053;DHT22;25758;48.200;16.338;2024-01-07T03:52:07;3.50;99.90
40053;DHT22;25758;48.200;16.338;2024-01-07T03:54:40;3.50;99.90
40053;DHT22;25758;48.200;16.338;2024-01-07T03:57:06;3.30;99.90
40053;DHT22;25758;48.200;16.338;2024-01-07T03:59:31;3.70;99.90
40053;DHT22;25758;48.200;16.338;2024-01-07T04:04:23;3.60;99.90
40053;DHT22;25758;48.200;16.338;2024-01-07T04:09:15;3.60;99.90
40053;DHT22;25758;48.200;16.338;2024-01-07T04:11:43;3.60;99.90
40053;DHT22;25758;48.200;16.338;2024-01-07T04:16:35;3.60;99.90
40053;DHT22;25758;48.200;16.338;2024-01-07T04:19:18;3.50;99.90
40053;DHT22;25758;48.200;16.338;2024-01-07T04:21:49;4.30;99.90
40053;DHT22;25758;48.200;16.338;2024-01-07T04:24:14;3.10;99.90
40053;DHT22;25758;48.200;16.338;2024-01-07T04:26:40;3.30;99.90
40053;DHT22;25758;48.200;16.338;2024-01-07T04:29:06;3.50;99.90
40053;DHT22;25758;48.200;16.338;2024-01-07T04:33:58;3.60;99.90
40053;DHT22;25758;48.200;16.338;2024-01-07T04:36:23;4.00;99.90
40053;DHT22;25758;48.200;16.338;2024-01-07T04:38:49;3.50;99.90
40053;DHT22;25758;48.200;16.338;2024-01-07T04:41:23;3.70;99.90
40053;DHT22;25758;48.200;16.338;2024-01-07T04:43:55;3.80;99.90
40053;DHT22;25758;48.200;16.338;2024-01-07T04:46:20;3.90;99.90
40053;DHT22;25758;48.200;16.338;2024-01-07T04:48:46;3.80;99.90
40053;DHT22;25758;48.200;16.338;2024-01-07T04:55:05;3.60;99.90
40053;DHT22;25758;48.200;16.338;2024-01-07T04:59:56;3.50;99.90
40053;DHT22;25758;48.200;16.338;2024-01-07T05:02:22;3.40;99.90
40053;DHT22;25758;48.200;16.338;2024-01-07T05:07:14;3.50;99.90
40053;DHT22;25758;48.200;16.338;2024-01-07T05:12:06;3.60;99.90
40053;DHT22;25758;48.200;16.338;2024-01-07T05:14:32;3.50;99.90
40053;DHT22;25758;48.200;16.338;2024-01-07T05:16:57;4.70;99.90
40053;DHT22;25758;48.200;16.338;2024-01-07T05:21:49;3.50;99.90
40053;DHT22;25758;48.200;16.338;2024-01-07T05:24:15;3.40;99.90
40053;DHT22;25758;48.200;16.338;2024-01-07T05:26:44;3.40;99.90
40053;DHT22;25758;48.200;16.338;2024-01-07T05:37:49;3.20;99.90
40053;DHT22;25758;48.200;16.338;2024-01-07T05:40:15;3.10;99.90
40053;DHT22;25758;48.200;16.338;2024-01-07T05:45:07;3.20;99.90
40053;DHT22;25758;48.200;16.338;2024-01-07T05:50:50;3.30;99.90
40053;DHT22;25758;48.200;16.338;2024-01-07T05:53:17;3.20;99.90
40053;DHT22;25758;48.200;16.338;2024-01-07T05:55:43;3.40;99.90
40053;DHT22;25758;48.200;16.338;2024-01-07T05:58:08;3.80;99.90
40053;DHT22;25758;48.200;16.338;2024-01-07T06:00:35;3.30;99.90
40053;DHT22;25758;48.200;16.338;2024-01-07T06:03:00;3.20;99.90
40053;DHT22;25758;48.200;16.338;2024-01-07T06:05:26;3.20;99.90
40053;DHT22;25758;48.200;16.338;2024-01-07T06:11:47;3.10;99.90
40053;DHT22;25758;48.200;16.338;2024-01-07T06:14:12;3.10;99.90
40053;DHT22;25758;48.200;16.338;2024-01-07T06:16:38;3.20;99.90
40053;DHT22;25758;48.200;16.338;2024-01-07T06:19:04;3.10;99.90
40053;DHT22;25758;48.200;16.338;2024-01-07T06:24:55;3.10;99.90
40053;DHT22;25758;48.200;16.338;2024-01-07T06:27:21;2.70;99.90
40053;DHT22;25758;48.200;16.338;2024-01-07T06:33:45;2.60;99.90
40053;DHT22;25758;48.200;16.338;2024-01-07T06:36:23;2.60;99.90
40053;DHT22;25758;48.200;16.338;2024-01-07T06:38:49;2.90;99.90
40053;DHT22;25758;48.200;16.338;2024-01-07T06:41:14;2.70;99.90
40053;DHT22;25758;48.200;16.338;2024-01-07T06:43:40;3.20;99.90
40053;DHT22;25758;48.200;16.338;2024-01-07T06:46:06;2.70;99.90
40053;DHT22;25758;48.200;16.338;2024-01-07T06:50:58;2.70;99.90
40053;DHT22;25758;48.200;16.338;2024-01-07T06:53:24;2.60;99.90
40053;DHT22;25758;48.200;16.338;2024-01-07T07:00:41;2.50;99.90
40053;DHT22;25758;48.200;16.338;2024-01-07T07:03:08;3.50;99.90
40053;DHT22;25758;48.200;16.338;2024-01-07T07:14:57;2.30;99.90
40053;DHT22;25758;48.200;16.338;2024-01-07T07:17:23;2.30;99.90
40053;DHT22;25758;48.200;16.338;2024-01-07T07:19:55;3.80;99.90
40053;DHT22;25758;48.200;16.338;2024-01-07T07:22:20;2.50;99.90
40053;DHT22;25758;48.200;16.338;2024-01-07T07:24:46;2.50;99.90
40053;DHT22;25758;48.200;16.338;2024-01-07T09:23:24;2.70;99.90
40053;DHT22;25758;48.200;16.338;2024-01-07T09:25:50;2.50;99.90
40053;DHT22;25758;48.200;16.338;2024-01-07T09:28:15;2.40;99.90
40053;DHT22;25758;48.200;16.338;2024-01-07T10:20:47;2.30;99.90
40053;DHT22;25758;48.200;16.338;2024-01-07T10:23:12;2.20;99.90
40053;DHT22;25758;48.200;16.338;2024-01-07T10:25:39;2.20;99.90
40053;DHT22;25758;48.200;16.338;2024-01-07T10:28:05;2.30;99.90
40053;DHT22;25758;48.200;16.338;2024-01-07T10:30:32;2.30;99.90
40053;DHT22;25758;48.200;16.338;2024-01-07T10:32:58;2.30;99.90
40053;DHT22;25758;48.200;16.338;2024-01-07T10:35:34;2.20;99.90
40053;DHT22;25758;48.200;16.338;2024-01-07T10:38:03;2.10;99.90
40053;DHT22;25758;48.200;16.338;2024-01-07T10:40:31;2.20;99.90
40053;DHT22;25758;48.200;16.338;2024-01-07T10:47:54;2.10;99.90
40053;DHT22;25758;48.200;16.338;2024-01-07T10:50:21;2.20;99.90
40053;DHT22;25758;48.200;16.338;2024-01-07T10:52:50;2.10;99.90
40053;DHT22;25758;48.200;16.338;2024-01-07T10:55:33;3.20;99.90
40053;DHT22;25758;48.200;16.338;2024-01-07T10:58:00;3.00;99.90
40053;DHT22;25758;48.200;16.338;2024-01-07T11:00:26;2.40;99.90
40053;DHT22;25758;48.200;16.338;2024-01-07T11:03:11;2.20;99.90
40053;DHT22;25758;48.200;16.338;2024-01-07T11:06:24;2.20;99.90
40053;DHT22;25758;48.200;16.338;2024-01-07T11:08:40;2.20;99.90
40053;DHT22;25758;48.200;16.338;2024-01-07T11:11:12;3.20;99.90
40053;DHT22;25758;48.200;16.338;2024-01-07T11:13:40;3.80;99.90
40053;DHT22;25758;48.200;16.338;2024-01-07T11:16:07;2.10;99.90
40053;DHT22;25758;48.200;16.338;2024-01-07T11:18:38;3.90;99.90
40053;DHT22;25758;48.200;16.338;2024-01-07T11:21:05;2.10;99.90
40053;DHT22;25758;48.200;16.338;2024-01-07T11:23:43;4.00;99.90
40053;DHT22;25758;48.200;16.338;2024-01-07T11:26:08;3.00;99.90
40053;DHT22;25758;48.200;16.338;2024-01-07T11:28:51;1.90;99.90
40053;DHT22;25758;48.200;16.338;2024-01-07T11:31:19;1.90;99.90
40053;DHT22;25758;48.200;16.338;2024-01-07T11:33:46;2.20;99.90
40053;DHT22;25758;48.200;16.338;2024-01-07T11:36:13;3.50;99.90
40053;DHT22;25758;48.200;16.338;2024-01-07T11:38:48;3.90;99.90
40053;DHT22;25758;48.200;16.338;2024-01-07T11:41:15;3.20;99.90
40053;DHT22;25758;48.200;16.338;2024-01-07T11:44:03;2.20;99.90
40053;DHT22;25758;48.200;16.338;2024-01-07T11:46:29;2.10;99.90
40053;DHT22;25758;48.200;16.338;2024-01-07T11:48:59;2.20;99.90
40053;DHT22;25758;48.200;16.338;2024-01-07T11:51:45;2.70;99.90
40053;DHT22;25758;48.200;16.338;2024-01-07T11:54:31;3.80;99.90
40053;DHT22;25758;48.200;16.338;2024-01-07T11:56:57;2.00;99.90
40053;DHT22;25758;48.200;16.338;2024-01-07T11:59:23;2.10;99.90
40053;DHT22;25758;48.200;16.338;2024-01-07T12:08:31;2.20;99.90
40053;DHT22;25758;48.200;16.338;2024-01-07T12:10:57;2.30;99.90
40053;DHT22;25758;48.200;16.338;2024-01-07T12:15:55;2.00;99.90
40053;DHT22;25758;48.200;16.338;2024-01-07T12:18:20;2.20;99.90
40053;DHT22;25758;48.200;16.338;2024-01-07T12:20:56;1.90;99.90
40053;DHT22;25758;48.200;16.338;2024-01-07T12:23:23;2.00;99.90
40053;DHT22;25758;48.200;16.338;2024-01-07T12:25:49;3.20;99.90
40053;DHT22;25758;48.200;16.338;2024-01-07T12:28:28;1.80;99.90
40053;DHT22;25758;48.200;16.338;2024-01-07T12:31:00;1.90;99.90
40053;DHT22;25758;48.200;16.338;2024-01-07T12:33:27;4.40;99.90
40053;DHT22;25758;48.200;16.338;2024-01-07T12:35:54;2.00;99.90
40053;DHT22;25758;48.200;16.338;2024-01-07T12:38:27;3.60;99.90
40053;DHT22;25758;48.200;16.338;2024-01-07T12:40:53;2.10;99.90
40053;DHT22;25758;48.200;16.338;2024-01-07T12:43:19;2.00;99.90
40053;DHT22;25758;48.200;16.338;2024-01-07T12:45:45;2.10;99.90
40053;DHT22;25758;48.200;16.338;2024-01-07T12:48:12;2.10;99.90
40053;DHT22;25758;48.200;16.338;2024-01-07T12:53:07;2.40;99.90
40053;DHT22;25758;48.200;16.338;2024-01-07T12:56:05;2.30;99.90
40053;DHT22;25758;48.200;16.338;2024-01-07T13:36:13;2.20;99.90
40053;DHT22;25758;48.200;16.338;2024-01-07T13:38:56;2.20;99.90
40053;DHT22;25758;48.200;16.338;2024-01-07T13:41:22;3.10;99.90
40053;DHT22;25758;48.200;16.338;2024-01-07T13:43:49;2.30;99.90
40053;DHT22;25758;48.200;16.338;2024-01-07T13:46:17;3.20;99.90
40053;DHT22;25758;48.200;16.338;2024-01-07T13:48:51;2.70;99.90
40053;DHT22;25758;48.200;16.338;2024-01-07T13:51:17;2.90;99.90
40053;DHT22;25758;48.200;16.338;2024-01-07T13:53:43;3.30;99.90
40053;DHT22;25758;48.200;16.338;2024-01-07T13:59:13;2.00;99.90
40053;DHT22;25758;48.200;16.338;2024-01-07T17:12:56;1.30;99.90
40053;DHT22;25758;48.200;16.338;2024-01-07T17:20:37;1.10;99.90
40053;DHT22;25758;48.200;16.338;2024-01-07T17:23:49;1.20;99.90
40053;DHT22;25758;48.200;16.338;2024-01-07T17:27:12;1.20;99.90
40053;DHT22;25758;48.200;16.338;2024-01-07T17:45:05;1.20;99.90
40053;DHT22;25758;48.200;16.338;2024-01-07T17:47:37;1.10;99.90
40053;DHT22;25758;48.200;16.338;2024-01-07T17:50:05;1.00;99.90
40053;DHT22;25758;48.200;16.338;2024-01-07T17:57:23;1.00;99.90
40053;DHT22;25758;48.200;16.338;2024-01-07T17:59:49;0.90;99.90
40053;DHT22;25758;48.200;16.338;2024-01-07T18:02:15;1.00;99.90
40053;DHT22;25758;48.200;16.338;2024-01-07T18:04:41;1.00;99.90
40053;DHT22;25758;48.200;16.338;2024-01-07T18:07:06;1.00;99.90
40053;DHT22;25758;48.200;16.338;2024-01-07T18:11:59;1.00;99.90
40053;DHT22;25758;48.200;16.338;2024-01-07T18:16:50;1.10;99.90
40053;DHT22;25758;48.200;16.338;2024-01-07T18:19:16;0.90;99.90
40053;DHT22;25758;48.200;16.338;2024-01-07T18:24:08;0.80;99.90
40053;DHT22;25758;48.200;16.338;2024-01-07T18:33:52;0.80;99.90
40053;DHT22;25758;48.200;16.338;2024-01-07T18:36:17;0.90;99.90
40053;DHT22;25758;48.200;16.338;2024-01-07T18:38:43;0.80;99.90
40053;DHT22;25758;48.200;16.338;2024-01-07T18:48:28;0.70;99.90
40053;DHT22;25758;48.200;16.338;2024-01-07T18:50:53;0.70;99.90
40053;DHT22;25758;48.200;16.338;2024-01-07T18:53:19;0.70;99.90
40053;DHT22;25758;48.200;16.338;2024-01-07T18:55:45;1.20;99.90
40053;DHT22;25758;48.200;16.338;2024-01-07T18:58:13;0.80;99.90
40053;DHT22;25758;48.200;16.338;2024-01-07T19:00:40;0.60;99.90
40053;DHT22;25758;48.200;16.338;2024-01-07T19:03:06;0.60;99.90
40053;DHT22;25758;48.200;16.338;2024-01-07T19:05:32;0.60;99.90
40053;DHT22;25758;48.200;16.338;2024-01-07T19:07:57;0.60;99.90
40053;DHT22;25758;48.200;16.338;2024-01-07T19:17:43;0.60;99.90
40053;DHT22;25758;48.200;16.338;2024-01-07T19:20:14;0.60;99.90
40053;DHT22;25758;48.200;16.338;2024-01-07T19:22:41;0.60;99.90
40053;DHT22;25758;48.200;16.338;2024-01-07T19:25:07;0.60;99.90
40053;DHT22;25758;48.200;16.338;2024-01-07T19:30:00;0.60;99.90
40053;DHT22;25758;48.200;16.338;2024-01-07T19:37:20;0.60;99.90
40053;DHT22;25758;48.200;16.338;2024-01-07T19:42:12;0.50;99.90
40053;DHT22;25758;48.200;16.338;2024-01-07T19:44:40;0.50;99.90
40053;DHT22;25758;48.200;16.338;2024-01-07T19:47:06;0.50;99.90
40053;DHT22;25758;48.200;16.338;2024-01-07T19:49:32;0.60;99.90
40053;DHT22;25758;48.200;16.338;2024-01-07T19:51:57;0.60;99.90
40053;DHT22;25758;48.200;16.338;2024-01-07T19:54:23;0.60;99.90
40053;DHT22;25758;48.200;16.338;2024-01-07T19:59:27;0.60;99.90
40053;DHT22;25758;48.200;16.338;2024-01-07T20:01:53;0.50;99.90
40053;DHT22;25758;48.200;16.338;2024-01-07T20:06:46;0.60;99.90
40053;DHT22;25758;48.200;16.338;2024-01-07T20:09:11;0.50;99.90
40053;DHT22;25758;48.200;16.338;2024-01-07T20:11:37;0.50;99.90
40053;DHT22;25758;48.200;16.338;2024-01-07T20:14:03;0.60;99.90
40053;DHT22;25758;48.200;16.338;2024-01-07T20:16:30;0.60;99.90
40053;DHT22;25758;48.200;16.338;2024-01-07T20:19:21;0.50;99.90
40053;DHT22;25758;48.200;16.338;2024-01-07T20:22:12;0.30;99.90
40053;DHT22;25758;48.200;16.338;2024-01-07T20:24:38;0.40;99.90
40053;DHT22;25758;48.200;16.338;2024-01-07T20:34:25;0.30;99.90
40053;DHT22;25758;48.200;16.338;2024-01-07T20:44:13;0.40;99.90
40053;DHT22;25758;48.200;16.338;2024-01-07T21:01:28;0.20;99.90
40053;DHT22;25758;48.200;16.338;2024-01-07T21:16:06;0.10;99.90
40053;DHT22;25758;48.200;16.338;2024-01-07T21:49:12;0.20;99.90
